De Pue, Illinois
Current Conditions -  °F | °C
As of 10:15 PM on Thursday 27 Nov 2014 (Local Time) from KVYS Reporting Station
Clear Clear  
Wind Chill:   Ceiling: Unl
Heat Index: 12°   Visibility: 10mi
Dew Point:   Wind: 5mph
Humidity: 76%   Direction: 320°NW
Pressure: 30.41"   Gusts: NA
Location:  41.3278°N, 89.2998°W
Report Text: KVYS 280415Z AUTO 32004KT 10SM CLR M11/M14 A3041 RMK AO2 T11111145
Loading
Personal Weather Stations






























Interactive Weather Map New forecast layout! Learn more

10-Day Weather Forecast

Advertisements
Track Severe Weather on mobile